createdAt,value
2022-12-16T00:02:19.238Z,116.07
2022-12-16T00:04:53.811Z,118.13
2022-12-16T00:07:28.514Z,110.47
2022-12-16T00:10:02.276Z,105.03
2022-12-16T00:12:36.716Z,108.87
2022-12-16T00:15:13.525Z,109.40
2022-12-16T00:17:47.927Z,108.27
2022-12-16T00:20:21.814Z,120.30
2022-12-16T00:22:55.653Z,104.70
2022-12-16T00:25:29.674Z,116.73
2022-12-16T00:28:04.422Z,107.27
2022-12-16T00:30:40.711Z,112.97
2022-12-16T00:33:15.228Z,112.70
2022-12-16T00:35:49.701Z,108.97
2022-12-16T00:38:27.054Z,111.33
2022-12-16T00:41:01.135Z,101.30
2022-12-16T00:43:35.978Z,109.63
2022-12-16T00:46:12.070Z,113.80
2022-12-16T00:48:46.822Z,109.83
2022-12-16T00:51:20.713Z,118.03
2022-12-16T00:53:54.761Z,104.73
2022-12-16T00:56:28.928Z,111.10
2022-12-16T00:59:04.522Z,106.27
2022-12-16T01:01:41.583Z,106.27
2022-12-16T01:04:16.032Z,108.93
2022-12-16T01:06:51.130Z,108.30
2022-12-16T01:09:26.441Z,113.50
2022-12-16T01:12:00.539Z,106.93
2022-12-16T01:14:35.731Z,108.07
2022-12-16T01:17:12.419Z,104.07
2022-12-16T01:19:46.697Z,107.97
2022-12-16T01:22:21.262Z,102.97
2022-12-16T01:24:55.847Z,103.80
2022-12-16T01:27:29.837Z,108.07
2022-12-16T01:30:04.649Z,117.37
2022-12-16T01:32:41.386Z,116.00
2022-12-16T01:35:44.241Z,119.80
2022-12-16T01:38:10.376Z,105.97
2022-12-16T01:40:44.952Z,129.77
2022-12-16T01:43:27.767Z,115.03
2022-12-16T01:46:06.798Z,115.17
2022-12-16T01:48:49.795Z,115.93
2022-12-16T01:51:31.063Z,105.33
2022-12-16T01:54:10.316Z,118.13
2022-12-16T01:56:51.437Z,119.33
2022-12-16T01:59:26.686Z,117.87
2022-12-16T02:02:02.197Z,121.67
2022-12-16T02:04:58.431Z,119.67
2022-12-16T02:07:32.815Z,124.97
2022-12-16T02:10:06.992Z,119.23
2022-12-16T02:12:48.600Z,121.93
2022-12-16T02:15:38.565Z,124.40
2022-12-16T02:18:22.332Z,106.67
2022-12-16T02:21:26.255Z,121.20
2022-12-16T02:24:35.128Z,116.27
2022-12-16T02:27:47.904Z,143.07
2022-12-16T02:30:46.508Z,127.40
2022-12-16T02:33:44.358Z,147.33
2022-12-16T02:36:33.884Z,124.67
2022-12-16T02:39:14.285Z,128.63
2022-12-16T02:41:54.140Z,137.10
2022-12-16T02:44:36.434Z,124.63
2022-12-16T02:47:12.898Z,137.70
2022-12-16T02:49:54.967Z,131.00
2022-12-16T02:52:31.565Z,137.73
2022-12-16T02:55:10.598Z,133.63
2022-12-16T02:58:04.429Z,131.50
2022-12-16T03:00:48.837Z,132.73
2022-12-16T03:03:30.558Z,134.37
2022-12-16T03:06:06.510Z,136.47
2022-12-16T03:08:45.240Z,137.67
2022-12-16T03:11:20.029Z,141.50
2022-12-16T03:13:57.274Z,130.97
2022-12-16T03:16:35.311Z,128.00
2022-12-16T03:19:16.226Z,142.03
2022-12-16T03:21:56.806Z,131.40
2022-12-16T03:24:31.820Z,138.07
2022-12-16T03:27:12.044Z,136.60
2022-12-16T03:29:50.981Z,134.60
2022-12-16T03:32:32.443Z,142.10
2022-12-16T03:35:14.982Z,149.77
2022-12-16T03:37:51.457Z,140.67
2022-12-16T03:40:27.754Z,143.90
2022-12-16T03:43:04.530Z,142.07
2022-12-16T03:45:43.653Z,158.90
2022-12-16T03:48:22.304Z,144.23
2022-12-16T03:50:58.726Z,154.70
2022-12-16T03:53:33.388Z,159.80
2022-12-16T03:56:08.061Z,146.47
2022-12-16T03:58:43.036Z,154.50
2022-12-16T04:01:20.551Z,156.97
2022-12-16T04:03:58.442Z,156.53
2022-12-16T04:06:38.287Z,156.90
2022-12-16T04:09:15.161Z,153.17
2022-12-16T04:12:07.501Z,160.73
2022-12-16T04:14:59.193Z,161.33
2022-12-16T04:17:50.928Z,158.50
2022-12-16T04:20:49.200Z,152.37
2022-12-16T04:23:45.090Z,171.20
2022-12-16T04:26:22.356Z,151.40
2022-12-16T04:28:58.831Z,164.27
2022-12-16T04:31:36.811Z,172.87
2022-12-16T04:34:31.241Z,165.20
2022-12-16T04:37:23.767Z,173.23
2022-12-16T04:40:19.712Z,165.30
2022-12-16T04:43:11.722Z,174.13
2022-12-16T04:46:06.289Z,163.13
2022-12-16T04:48:58.308Z,167.17
2022-12-16T04:51:51.710Z,162.07
2022-12-16T04:54:43.695Z,157.50
2022-12-16T04:57:37.671Z,154.67
2022-12-16T05:00:31.775Z,151.10
2022-12-16T05:03:23.687Z,157.13
2022-12-16T05:06:14.099Z,144.70
2022-12-16T05:09:05.186Z,155.90
2022-12-16T05:11:55.864Z,138.07
2022-12-16T05:14:48.579Z,140.10
2022-12-16T05:17:40.125Z,131.60
2022-12-16T05:20:30.896Z,103.97
2022-12-16T05:23:21.241Z,90.53
2022-12-16T05:26:11.539Z,89.80
2022-12-16T05:29:01.859Z,93.27
2022-12-16T05:31:54.344Z,89.53
2022-12-16T05:34:45.145Z,93.43
2022-12-16T05:37:35.514Z,87.10
2022-12-16T05:40:26.408Z,92.53
2022-12-16T05:43:17.204Z,94.67
2022-12-16T05:46:07.929Z,79.73
2022-12-16T05:49:00.433Z,93.30
2022-12-16T05:51:50.825Z,77.50
2022-12-16T05:54:41.802Z,84.83
2022-12-16T05:57:32.542Z,84.17
2022-12-16T06:00:23.744Z,84.03
2022-12-16T06:03:14.696Z,74.47
2022-12-16T06:06:08.939Z,82.67
2022-12-16T06:08:59.459Z,77.03
2022-12-16T06:11:50.273Z,73.33
2022-12-16T06:14:41.119Z,73.93
2022-12-16T06:17:28.205Z,76.77
2022-12-16T06:20:19.018Z,66.17
2022-12-16T06:23:16.548Z,64.83
2022-12-16T06:26:09.148Z,68.80
2022-12-16T06:28:59.444Z,65.20
2022-12-16T06:31:51.094Z,57.10
2022-12-16T06:34:41.766Z,66.47
2022-12-16T06:37:31.940Z,69.30
2022-12-16T06:40:25.453Z,72.63
2022-12-16T06:43:15.916Z,62.87
2022-12-16T06:46:06.320Z,62.23
2022-12-16T06:48:56.683Z,63.07
2022-12-16T06:51:47.347Z,69.00
2022-12-16T06:54:38.051Z,56.53
2022-12-16T06:57:31.081Z,64.87
2022-12-16T07:00:21.615Z,58.67
2022-12-16T07:03:12.376Z,65.90
2022-12-16T07:06:02.843Z,67.70
2022-12-16T07:08:59.015Z,62.17
2022-12-16T07:11:49.667Z,61.77
2022-12-16T07:14:42.767Z,64.40
2022-12-16T07:17:33.412Z,75.43
2022-12-16T07:20:23.886Z,60.40
2022-12-16T07:23:19.873Z,59.87
2022-12-16T07:26:11.861Z,63.93
2022-12-16T07:29:02.861Z,68.77
2022-12-16T07:31:56.224Z,58.53
2022-12-16T07:34:50.095Z,63.00
2022-12-16T07:37:40.442Z,54.57
2022-12-16T07:40:31.820Z,67.57
2022-12-16T07:43:22.944Z,65.37
2022-12-16T07:46:13.929Z,53.83
2022-12-16T07:49:07.568Z,64.20
2022-12-16T07:51:59.629Z,48.17
2022-12-16T07:54:50.644Z,62.47
2022-12-16T07:57:41.344Z,59.33
2022-12-16T08:00:32.746Z,48.33
2022-12-16T08:03:23.755Z,62.30
2022-12-16T08:06:16.452Z,67.43
2022-12-16T08:09:06.613Z,61.33
2022-12-16T08:11:56.738Z,60.37
2022-12-16T08:14:47.076Z,57.70
2022-12-16T08:17:37.354Z,62.90
2022-12-16T08:20:28.707Z,56.53
2022-12-16T08:23:20.902Z,64.67
2022-12-16T08:26:11.561Z,56.70
2022-12-16T08:29:20.218Z,71.63
2022-12-16T08:32:11.968Z,57.20
2022-12-16T08:35:02.025Z,69.17
2022-12-16T08:37:51.685Z,50.57
2022-12-16T08:40:43.905Z,58.97
2022-12-16T08:43:35.802Z,60.97
2022-12-16T08:46:27.297Z,64.83
2022-12-16T08:49:17.781Z,59.57
2022-12-16T08:52:08.661Z,58.90
2022-12-16T08:54:59.038Z,74.53
2022-12-16T08:57:51.125Z,57.40
2022-12-16T09:00:47.163Z,55.63
2022-12-16T09:03:37.644Z,57.87
2022-12-16T09:06:28.553Z,55.97
2022-12-16T09:09:18.897Z,63.73
2022-12-16T09:12:09.577Z,59.83
2022-12-16T09:15:01.951Z,56.00
2022-12-16T09:17:52.381Z,73.80
2022-12-16T09:20:43.078Z,59.20
2022-12-16T09:23:33.814Z,69.43
2022-12-16T09:26:24.526Z,71.10
2022-12-16T09:29:14.729Z,59.13
2022-12-16T09:32:06.712Z,54.50
2022-12-16T09:34:53.779Z,68.10
2022-12-16T09:37:43.978Z,57.77
2022-12-16T09:40:36.769Z,58.73
2022-12-16T09:43:41.078Z,72.37
2022-12-16T09:46:38.852Z,57.47
2022-12-16T09:49:39.254Z,69.73
2022-12-16T09:52:35.098Z,62.23
2022-12-16T09:55:28.263Z,72.10
2022-12-16T09:58:19.156Z,66.13
2022-12-16T10:01:09.522Z,55.87
2022-12-16T10:04:01.342Z,57.73
2022-12-16T10:07:02.841Z,63.10
2022-12-16T10:10:00.738Z,58.57
2022-12-16T10:13:03.879Z,68.00
2022-12-16T10:16:02.005Z,60.77
2022-12-16T10:19:04.249Z,69.87
2022-12-16T10:22:04.979Z,75.77
2022-12-16T10:25:09.407Z,54.77
2022-12-16T10:28:04.721Z,58.20
2022-12-16T10:30:57.657Z,62.30
2022-12-16T10:34:02.850Z,59.70
2022-12-16T10:36:55.745Z,59.00
2022-12-16T10:39:52.517Z,63.93
2022-12-16T10:42:47.409Z,60.87
2022-12-16T10:45:44.266Z,58.03
2022-12-16T10:48:52.365Z,60.57
2022-12-16T10:51:49.979Z,65.77
2022-12-16T10:54:59.816Z,65.07
2022-12-16T10:58:04.557Z,66.63
2022-12-16T11:01:05.711Z,61.83
2022-12-16T11:03:58.300Z,62.70
2022-12-16T11:06:56.766Z,67.90
2022-12-16T11:09:52.232Z,71.70
2022-12-16T11:12:47.727Z,54.03
2022-12-16T11:15:47.385Z,69.33
2022-12-16T11:18:39.758Z,59.97
2022-12-16T11:21:39.205Z,62.50
2022-12-16T11:24:35.629Z,56.87
2022-12-16T11:27:35.262Z,56.90
2022-12-16T11:30:37.160Z,50.07
2022-12-16T11:33:36.609Z,55.30
2022-12-16T11:36:34.319Z,57.50
2022-12-16T11:39:27.745Z,59.23
2022-12-16T11:42:21.588Z,71.23
2022-12-16T11:45:18.821Z,53.83
2022-12-16T11:48:12.910Z,65.13
2022-12-16T11:51:11.070Z,54.23
2022-12-16T11:54:06.241Z,57.77
2022-12-16T11:57:00.896Z,62.33
2022-12-16T11:59:58.114Z,57.43
2022-12-16T12:02:57.532Z,56.47
2022-12-16T12:05:54.496Z,67.27
2022-12-16T12:08:53.363Z,70.57
2022-12-16T12:11:51.080Z,56.47
2022-12-16T12:14:59.912Z,54.10
2022-12-16T12:18:02.929Z,53.20
2022-12-16T12:21:03.413Z,54.83
2022-12-16T12:24:14.572Z,56.33
2022-12-16T12:27:14.290Z,60.77
2022-12-16T12:30:19.915Z,51.77
2022-12-16T12:33:21.596Z,55.67
2022-12-16T12:36:20.939Z,65.43
2022-12-16T12:39:25.967Z,57.03
2022-12-16T12:42:32.137Z,53.03
2022-12-16T12:45:59.097Z,55.40
2022-12-16T12:49:02.225Z,67.07
2022-12-16T12:52:05.446Z,63.30
2022-12-16T12:55:04.291Z,59.30
2022-12-16T12:57:58.478Z,52.07
2022-12-16T13:00:54.419Z,51.17
2022-12-16T13:03:59.207Z,57.47
2022-12-16T13:06:51.782Z,57.17
2022-12-16T13:09:50.057Z,64.07
2022-12-16T13:12:49.740Z,53.63
2022-12-16T13:15:55.161Z,52.87
2022-12-16T13:18:51.039Z,60.73
2022-12-16T13:22:11.110Z,57.70
2022-12-16T13:25:09.638Z,58.70
2022-12-16T13:28:16.611Z,54.37
2022-12-16T13:31:25.613Z,59.87
2022-12-16T13:34:23.348Z,67.03
2022-12-16T13:37:28.551Z,57.90
2022-12-16T13:40:27.140Z,56.63
2022-12-16T13:43:23.674Z,49.23
2022-12-16T13:46:41.051Z,64.83
2022-12-16T13:50:01.835Z,57.30
2022-12-16T13:53:07.491Z,50.17
2022-12-16T13:56:05.689Z,47.00
2022-12-16T13:59:01.580Z,63.20
2022-12-16T14:01:59.031Z,56.17
2022-12-16T14:04:53.709Z,50.00
2022-12-16T14:07:47.088Z,53.13
2022-12-16T14:11:09.049Z,53.77
2022-12-16T14:14:05.456Z,55.13
2022-12-16T14:17:08.383Z,53.93
2022-12-16T14:20:13.883Z,52.17
2022-12-16T14:23:47.113Z,49.97
2022-12-16T14:26:36.208Z,61.00
2022-12-16T14:29:45.205Z,61.90
2022-12-16T14:32:49.381Z,56.47
2022-12-16T14:35:43.359Z,56.43
2022-12-16T14:38:48.500Z,67.10
2022-12-16T14:41:44.012Z,60.73
2022-12-16T14:44:40.414Z,53.33
2022-12-16T14:47:39.260Z,53.90
2022-12-16T14:50:42.546Z,54.70
2022-12-16T14:53:39.015Z,50.60
2022-12-16T14:56:54.017Z,63.30
2022-12-16T14:59:47.336Z,53.77
2022-12-16T15:02:51.266Z,55.83
2022-12-16T15:05:46.489Z,63.93
2022-12-16T15:08:43.993Z,56.77
2022-12-16T15:11:38.340Z,61.07
2022-12-16T15:14:38.158Z,61.17
2022-12-16T15:17:43.508Z,56.23
2022-12-16T15:20:41.511Z,56.13
2022-12-16T15:23:39.689Z,57.80
2022-12-16T15:26:37.002Z,55.77
2022-12-16T15:29:52.475Z,72.40
2022-12-16T15:33:02.601Z,62.53
2022-12-16T15:35:57.507Z,72.57
2022-12-16T15:38:53.246Z,66.27
2022-12-16T15:41:49.155Z,77.77
2022-12-16T15:44:42.521Z,74.63
2022-12-16T15:47:50.275Z,74.23
2022-12-16T15:50:44.320Z,70.57
2022-12-16T15:53:50.025Z,60.10
2022-12-16T15:56:42.761Z,69.83
2022-12-16T15:59:44.781Z,65.23
2022-12-16T16:02:43.914Z,59.93
2022-12-16T16:05:46.919Z,55.20
2022-12-16T16:08:37.712Z,70.67
2022-12-16T16:11:28.767Z,69.07
2022-12-16T16:14:19.267Z,71.77
2022-12-16T16:17:10.131Z,72.03
2022-12-16T16:20:03.931Z,67.23
2022-12-16T16:22:54.271Z,64.37
2022-12-16T16:25:45.386Z,71.37
2022-12-16T16:28:36.590Z,82.67
2022-12-16T16:31:30.127Z,73.63
2022-12-16T16:34:21.076Z,79.70
2022-12-16T16:37:16.600Z,73.70
2022-12-16T16:40:07.196Z,73.87
2022-12-16T16:42:57.588Z,65.33
2022-12-16T16:45:44.583Z,68.53
2022-12-16T16:48:37.548Z,61.30
2022-12-16T16:51:27.934Z,65.77
2022-12-16T16:54:19.811Z,72.57
2022-12-16T16:57:09.892Z,69.30
2022-12-16T17:00:00.121Z,72.13
2022-12-16T17:03:02.169Z,69.17
2022-12-16T17:05:52.935Z,77.87
2022-12-16T17:08:42.728Z,66.97
2022-12-16T17:11:39.836Z,63.60
2022-12-16T17:14:33.623Z,77.87
2022-12-16T17:17:23.862Z,58.37
2022-12-16T17:20:13.425Z,63.30
2022-12-16T17:23:03.650Z,58.10
2022-12-16T17:25:53.592Z,69.77
2022-12-16T17:28:47.729Z,60.13
2022-12-16T17:31:37.929Z,59.60
2022-12-16T17:34:36.428Z,67.33
2022-12-16T17:37:26.203Z,56.87
2022-12-16T17:40:16.620Z,62.23
2022-12-16T17:43:06.972Z,74.53
2022-12-16T17:45:59.080Z,53.23
2022-12-16T17:48:45.928Z,64.43
2022-12-16T17:51:36.296Z,57.10
2022-12-16T17:54:29.586Z,50.90
2022-12-16T17:57:19.288Z,62.80
2022-12-16T18:00:08.814Z,70.80
2022-12-16T18:03:06.959Z,65.47
2022-12-16T18:05:56.835Z,54.27
2022-12-16T18:08:46.299Z,51.53
2022-12-16T18:11:38.726Z,62.40
2022-12-16T18:14:29.129Z,65.63
2022-12-16T18:17:19.596Z,58.90
2022-12-16T18:20:12.000Z,58.77
2022-12-16T18:23:02.227Z,62.27
2022-12-16T18:25:54.725Z,57.70
2022-12-16T18:28:45.183Z,57.53
2022-12-16T18:31:34.989Z,50.20
2022-12-16T18:34:24.814Z,48.53
2022-12-16T18:37:16.155Z,62.47
2022-12-16T18:40:06.113Z,45.57
2022-12-16T18:42:55.825Z,50.70
2022-12-16T18:45:45.885Z,48.17
2022-12-16T18:48:35.973Z,54.17
2022-12-16T18:51:29.769Z,53.10
2022-12-16T18:54:21.786Z,53.83
2022-12-16T18:57:11.831Z,57.67
2022-12-16T19:00:01.766Z,42.00
2022-12-16T19:02:52.639Z,38.50
2022-12-16T19:05:43.272Z,55.70
2022-12-16T19:08:33.731Z,49.87
2022-12-16T19:11:25.782Z,43.10
2022-12-16T19:14:15.867Z,42.40
2022-12-16T19:17:15.611Z,38.27
2022-12-16T19:20:05.811Z,35.87
2022-12-16T19:22:55.528Z,37.53
2022-12-16T19:25:45.849Z,33.77
2022-12-16T19:28:38.078Z,42.17
2022-12-16T19:31:32.614Z,35.63
2022-12-16T19:34:22.712Z,49.00
2022-12-16T19:37:13.105Z,41.23
2022-12-16T19:40:03.594Z,41.90
2022-12-16T19:42:57.527Z,37.80
2022-12-16T19:45:50.789Z,35.37
2022-12-16T19:48:42.530Z,52.83
2022-12-16T19:51:33.294Z,40.33
2022-12-16T19:54:23.505Z,40.13
2022-12-16T19:57:13.826Z,35.47
2022-12-16T20:00:04.302Z,50.57
2022-12-16T20:03:03.423Z,40.67
2022-12-16T20:05:54.009Z,42.43
2022-12-16T20:08:46.496Z,48.50
2022-12-16T20:11:37.159Z,43.17
2022-12-16T20:14:28.743Z,45.80
2022-12-16T20:17:19.131Z,39.93
2022-12-16T20:20:11.206Z,39.60
2022-12-16T20:23:01.292Z,46.53
2022-12-16T20:25:50.887Z,36.53
2022-12-16T20:28:41.926Z,40.40
2022-12-16T20:31:32.366Z,30.97
2022-12-16T20:34:22.427Z,35.67
2022-12-16T20:37:14.780Z,35.17
2022-12-16T20:40:04.270Z,32.57
2022-12-16T20:43:02.665Z,42.37
2022-12-16T20:45:54.841Z,37.50
2022-12-16T20:48:45.737Z,38.63
2022-12-16T20:51:35.350Z,31.10
2022-12-16T20:54:29.418Z,50.43
2022-12-16T20:57:19.519Z,34.83
2022-12-16T21:00:09.384Z,40.50
2022-12-16T21:02:59.576Z,39.33
2022-12-16T21:05:50.021Z,40.37
2022-12-16T21:08:41.134Z,42.27
2022-12-16T21:11:33.497Z,46.60
2022-12-16T21:14:23.952Z,51.30
2022-12-16T21:17:14.067Z,34.40
2022-12-16T21:20:04.564Z,35.00
2022-12-16T21:22:54.641Z,43.27
2022-12-16T21:25:46.969Z,45.47
2022-12-16T21:28:38.949Z,33.83
2022-12-16T21:31:29.451Z,33.33
2022-12-16T21:34:19.938Z,36.40
2022-12-16T21:37:11.967Z,40.23
2022-12-16T21:40:02.657Z,31.97
2022-12-16T21:42:56.270Z,23.57
2022-12-16T21:45:47.963Z,28.80
2022-12-16T21:48:38.080Z,38.27
2022-12-16T21:51:28.366Z,35.50
2022-12-16T21:54:19.009Z,38.53
2022-12-16T21:57:09.724Z,29.83
2022-12-16T22:00:00.109Z,37.87
2022-12-16T22:02:52.047Z,32.93
2022-12-16T22:05:41.999Z,28.07
2022-12-16T22:08:32.039Z,37.13
2022-12-16T22:11:28.037Z,33.60
2022-12-16T22:14:18.400Z,39.00
2022-12-16T22:17:08.672Z,32.47
2022-12-16T22:20:01.923Z,39.53
2022-12-16T22:22:52.054Z,42.13
2022-12-16T22:25:42.683Z,36.43
2022-12-16T22:28:32.925Z,40.37
2022-12-16T22:31:22.661Z,34.30
2022-12-16T22:34:13.026Z,35.77
2022-12-16T22:37:04.835Z,34.87
2022-12-16T22:39:54.593Z,34.47
2022-12-16T22:42:46.113Z,39.77
2022-12-16T22:45:36.285Z,36.20
2022-12-16T22:48:26.973Z,37.60
2022-12-16T22:51:17.349Z,35.60
2022-12-16T22:54:09.787Z,33.13
2022-12-16T22:56:59.955Z,47.37
2022-12-16T22:59:50.215Z,37.43
2022-12-16T23:02:40.208Z,35.20
2022-12-16T23:05:30.122Z,32.00
2022-12-16T23:08:19.909Z,33.43
2022-12-16T23:11:17.306Z,37.90
2022-12-16T23:14:07.221Z,42.23
2022-12-16T23:16:56.929Z,39.40
2022-12-16T23:19:47.006Z,39.03
2022-12-16T23:22:36.726Z,31.50
2022-12-16T23:25:27.380Z,45.53
2022-12-16T23:28:19.528Z,39.37
2022-12-16T23:31:14.078Z,27.37
2022-12-16T23:34:04.512Z,37.27
2022-12-16T23:37:03.178Z,26.40
2022-12-16T23:39:53.130Z,41.60
2022-12-16T23:42:46.417Z,35.30
2022-12-16T23:45:38.213Z,31.33
2022-12-16T23:48:31.298Z,41.47
2022-12-16T23:51:21.422Z,34.40
2022-12-16T23:54:11.311Z,40.40
2022-12-16T23:57:01.408Z,36.67
2022-12-16T23:59:51.182Z,34.60
